Time;durP1;ratioP1;P1;durP2;ratioP2;P2;SDS_P1;SDS_P2;PMS_P1;PMS_P2;Temp;Humidity;BMP_temperature;BMP_pressure;BME280_temperature;BME280_humidity;BME280_pressure;Samples;Min_cycle;Max_cycle;Signal;HPM_P1;HPM_P2
2024/01/01 00:01:02;;;;;;;;;;;;;;;;;;5089063;28;19957;-64
2024/01/01 00:03:28;;;;;;;;;;;;;;;;;;5089581;28;20330;-64
2024/01/01 00:05:54;;;;;;;;;;;;;;;;;;5091774;28;19916;-64
2024/01/01 00:08:19;;;;;;;;;;;;;;;;;;5092668;28;19916;-64
2024/01/01 00:10:47;;;;;;;;;;;;;;;;;;5092503;28;19943;-64
2024/01/01 00:13:13;;;;;;;;;;;;;;;;;;5091435;28;19977;-64
2024/01/01 00:15:38;;;;;;;;;;;;;;;;;;5090148;28;19916;-64
2024/01/01 00:18:04;;;;;;;;;;;;;;;;;;5092169;28;20390;-64
2024/01/01 00:20:30;;;;;;;;;;;;;;;;;;5091394;28;19961;-64
2024/01/01 00:22:56;;;;;;;;;;;;;;;;;;5091631;28;19994;-64
2024/01/01 00:25:22;;;;;;;;;;;;;;;;;;5091696;28;20386;-64
2024/01/01 00:27:48;;;;;;;;;;;;;;;;;;5092191;28;19920;-64
2024/01/01 00:30:14;;;;;;;;;;;;;;;;;;5092202;28;19923;-64
2024/01/01 00:32:40;;;;;;;;;;;;;;;;;;5091864;28;19951;-64
2024/01/01 00:35:06;;;;;;;;;;;;;;;;;;5092611;28;19920;-64
2024/01/01 00:37:32;;;;;;;;;;;;;;;;;;5091141;28;19951;-64
2024/01/01 00:39:57;;;;;;;;;;;;;;;;;;5085342;28;19918;-64
2024/01/01 00:42:25;;;;;;;;;;;;;;;;;;5080087;28;20376;-64
2024/01/01 00:44:51;;;;;;;;;;;;;;;;;;5090015;28;19916;-64
2024/01/01 00:47:17;;;;;;;;;;;;;;;;;;5088947;28;19955;-63
2024/01/01 00:49:43;;;;;;;;;;;;;;;;;;5086586;28;19971;-64
2024/01/01 00:52:09;;;;;;;;;;;;;;;;;;5086937;28;20394;-64
2024/01/01 00:54:35;;;;;;;;;;;;;;;;;;5080173;28;19912;-64
2024/01/01 00:57:01;;;;;;;;;;;;;;;;;;5082478;28;20676;-63
2024/01/01 00:59:27;;;;;;;;;;;;;;;;;;5087810;28;20008;-63
2024/01/01 01:01:52;;;;;;;;;;;;;;;;;;5081199;28;20486;-64
2024/01/01 01:04:18;;;;;;;;;;;;;;;;;;5092562;28;20253;-64
2024/01/01 01:06:45;;;;;;;;;;;;;;;;;;5091888;28;19919;-64
2024/01/01 01:09:11;;;;;;;;;;;;;;;;;;5082669;28;19920;-64
2024/01/01 01:11:38;;;;;;;;;;;;;;;;;;5085613;28;19922;-64
2024/01/01 01:14:04;;;;;;;;;;;;;;;;;;5090390;28;19918;-63
2024/01/01 01:16:29;;;;;;;;;;;;;;;;;;5088238;28;19916;-63
2024/01/01 01:18:55;;;;;;;;;;;;;;;;;;5086962;28;20383;-63
2024/01/01 01:21:21;;;;;;;;;;;;;;;;;;5092301;28;19916;-62
2024/01/01 01:23:47;;;;;;;;;;;;;;;;;;5092180;28;19916;-64
2024/01/01 01:26:13;;;;;;;;;;;;;;;;;;5089886;28;20512;-64
2024/01/01 01:28:39;;;;;;;;;;;;;;;;;;5091998;28;19920;-64
2024/01/01 01:31:05;;;;;;;;;;;;;;;;;;5088358;28;20327;-63
2024/01/01 01:33:31;;;;;;;;;;;;;;;;;;5089902;28;19916;-65
2024/01/01 01:35:57;;;;;;;;;;;;;;;;;;5092047;28;19916;-64
2024/01/01 01:38:23;;;;;;;;;;;;;;;;;;5090193;28;19965;-64
2024/01/01 01:40:49;;;;;;;;;;;;;;;;;;5087377;28;19912;-64
2024/01/01 01:43:15;;;;;;;;;;;;;;;;;;5091744;28;19954;-64
2024/01/01 01:45:41;;;;;;;;;;;;;;;;;;5090537;28;20365;-63
2024/01/01 01:48:07;;;;;;;;;;;;;;;;;;5088933;28;19942;-64
2024/01/01 01:50:33;;;;;;;;;;;;;;;;;;5090589;28;19912;-64
2024/01/01 01:52:59;;;;;;;;;;;;;;;;;;5088096;28;19955;-65
2024/01/01 01:55:25;;;;;;;;;;;;;;;;;;5092206;28;19917;-65
2024/01/01 01:57:51;;;;;;;;;;;;;;;;;;5093943;28;19919;-64
2024/01/01 02:00:16;;;;;;;;;;;;;;;;;;5087795;28;19943;-64
2024/01/01 02:02:42;;;;;;;;;;;;;;;;;;5093205;28;19912;-64
2024/01/01 02:05:08;;;;;;;;;;;;;;;;;;5090626;28;20006;-65
2024/01/01 02:07:34;;;;;;;;;;;;;;;;;;5088010;28;19912;-64
2024/01/01 02:10:00;;;;;;;;;;;;;;;;;;5093778;28;19919;-64
2024/01/01 02:12:26;;;;;;;;;;;;;;;;;;5093392;28;19967;-65
2024/01/01 02:14:52;;;;;;;;;;;;;;;;;;5094939;28;20010;-64
2024/01/01 02:17:18;;;;;;;;;;;;;;;;;;5083567;28;20675;-64
2024/01/01 02:19:44;;;;;;;;;;;;;;;;;;5075736;28;19998;-64
2024/01/01 02:22:09;;;;;;;;;;;;;;;;;;5091957;28;19919;-63
2024/01/01 02:24:35;;;;;;;;;;;;;;;;;;5095230;28;19916;-64
2024/01/01 02:27:01;;;;;;;;;;;;;;;;;;5094855;28;19999;-64
2024/01/01 02:29:27;;;;;;;;;;;;;;;;;;5093739;28;19923;-64
2024/01/01 02:31:53;;;;;;;;;;;;;;;;;;5080135;28;19966;-63
2024/01/01 02:34:19;;;;;;;;;;;;;;;;;;5094702;28;20007;-64
2024/01/01 02:36:45;;;;;;;;;;;;;;;;;;5093471;28;19927;-63
2024/01/01 02:39:11;;;;;;;;;;;;;;;;;;5090534;28;19947;-63
2024/01/01 02:41:37;;;;;;;;;;;;;;;;;;5093949;28;19966;-64
2024/01/01 02:44:03;;;;;;;;;;;;;;;;;;5094640;28;19916;-64
2024/01/01 02:46:29;;;;;;;;;;;;;;;;;;5091891;28;19969;-64
2024/01/01 02:48:55;;;;;;;;;;;;;;;;;;5091785;28;20322;-64
2024/01/01 02:51:20;;;;;;;;;;;;;;;;;;5090083;28;19980;-64
2024/01/01 02:53:46;;;;;;;;;;;;;;;;;;5087375;28;19944;-64
2024/01/01 02:56:12;;;;;;;;;;;;;;;;;;5085169;28;19922;-63
2024/01/01 02:58:38;;;;;;;;;;;;;;;;;;5090219;28;20501;-64
2024/01/01 03:01:04;;;;;;;;;;;;;;;;;;5093676;28;20002;-64
2024/01/01 03:03:30;;;;;;;;;;;;;;;;;;5089419;28;19974;-63
2024/01/01 03:05:56;;;;;;;;;;;;;;;;;;5093533;28;20368;-64
2024/01/01 03:08:22;;;;;;;;;;;;;;;;;;5090285;28;19919;-64
2024/01/01 03:10:48;;;;;;;;;;;;;;;;;;5091183;28;20423;-64
2024/01/01 03:13:14;;;;;;;;;;;;;;;;;;5077161;28;19999;-64
2024/01/01 03:15:39;;;;;;;;;;;;;;;;;;5082752;28;19981;-64
2024/01/01 03:18:05;;;;;;;;;;;;;;;;;;5092410;28;19965;-64
2024/01/01 03:20:33;;;;;;;;;;;;;;;;;;5090914;28;19967;-64
2024/01/01 03:22:59;;;;;;;;;;;;;;;;;;5085339;28;20387;-64
2024/01/01 03:25:25;;;;;;;;;;;;;;;;;;5093863;28;19931;-64
2024/01/01 03:27:51;;;;;;;;;;;;;;;;;;5093177;28;20026;-63
2024/01/01 03:30:18;;;;;;;;;;;;;;;;;;5088160;28;19912;-64
2024/01/01 03:32:46;;;;;;;;;;;;;;;;;;5092140;28;20291;-63
2024/01/01 03:35:12;;;;;;;;;;;;;;;;;;5083019;28;19923;-64
2024/01/01 03:37:37;;;;;;;;;;;;;;;;;;5090989;28;19912;-64
2024/01/01 03:40:03;;;;;;;;;;;;;;;;;;5090847;28;20419;-64
2024/01/01 03:42:29;;;;;;;;;;;;;;;;;;5092181;28;19919;-62
2024/01/01 03:44:55;;;;;;;;;;;;;;;;;;5090306;28;19958;-62
2024/01/01 03:47:21;;;;;;;;;;;;;;;;;;5091076;28;20376;-62
2024/01/01 03:49:47;;;;;;;;;;;;;;;;;;5093253;28;19912;-62
2024/01/01 03:52:13;;;;;;;;;;;;;;;;;;5090064;28;19957;-65
2024/01/01 03:54:39;;;;;;;;;;;;;;;;;;5092349;28;20380;-61
2024/01/01 03:57:05;;;;;;;;;;;;;;;;;;5092639;28;19916;-62
2024/01/01 03:59:31;;;;;;;;;;;;;;;;;;5089436;28;19920;-62
2024/01/01 04:01:57;;;;;;;;;;;;;;;;;;5092550;28;19912;-62
2024/01/01 04:04:23;;;;;;;;;;;;;;;;;;5091509;28;19999;-62
2024/01/01 04:06:49;;;;;;;;;;;;;;;;;;5091961;28;20415;-62
2024/01/01 04:09:15;;;;;;;;;;;;;;;;;;5090739;28;19916;-62
2024/01/01 04:11:40;;;;;;;;;;;;;;;;;;5092946;28;19908;-62
2024/01/01 04:14:06;;;;;;;;;;;;;;;;;;5090615;28;19920;-62
2024/01/01 04:16:32;;;;;;;;;;;;;;;;;;5075261;28;19974;-62
2024/01/01 04:18:58;;;;;;;;;;;;;;;;;;5091681;28;20363;-62
2024/01/01 04:21:24;;;;;;;;;;;;;;;;;;5091182;28;19920;-62
2024/01/01 04:23:50;;;;;;;;;;;;;;;;;;5088172;28;20011;-62
2024/01/01 04:26:16;;;;;;;;;;;;;;;;;;5079855;28;19963;-62
2024/01/01 04:28:42;;;;;;;;;;;;;;;;;;5080423;28;19924;-62
2024/01/01 04:31:08;;;;;;;;;;;;;;;;;;5090827;28;19959;-62
2024/01/01 04:33:34;;;;;;;;;;;;;;;;;;5079529;28;19916;-62
2024/01/01 04:35:59;;;;;;;;;;;;;;;;;;5091557;28;19916;-62
2024/01/01 04:38:25;;;;;;;;;;;;;;;;;;5092316;28;19959;-62
2024/01/01 04:40:51;;;;;;;;;;;;;;;;;;5088733;28;20015;-62
2024/01/01 04:43:17;;;;;;;;;;;;;;;;;;5073415;28;19977;-62
2024/01/01 04:45:43;;;;;;;;;;;;;;;;;;5085965;28;20360;-62
2024/01/01 04:48:09;;;;;;;;;;;;;;;;;;5090199;28;19920;-62
2024/01/01 04:50:35;;;;;;;;;;;;;;;;;;5083561;28;19966;-62
2024/01/01 04:53:01;;;;;;;;;;;;;;;;;;5091663;28;19913;-64
2024/01/01 04:55:27;;;;;;;;;;;;;;;;;;5087850;28;20023;-63
2024/01/01 04:57:53;;;;;;;;;;;;;;;;;;5092168;28;19955;-64
2024/01/01 05:00:19;;;;;;;;;;;;;;;;;;5084673;28;19992;-63
2024/01/01 05:02:45;;;;;;;;;;;;;;;;;;5083297;28;20271;-63
2024/01/01 05:05:11;;;;;;;;;;;;;;;;;;5086774;28;19958;-63
2024/01/01 05:07:37;;;;;;;;;;;;;;;;;;5080928;28;19912;-64
2024/01/01 05:10:03;;;;;;;;;;;;;;;;;;5089301;28;19955;-63
2024/01/01 05:12:29;;;;;;;;;;;;;;;;;;5089163;28;19947;-64
2024/01/01 05:14:55;;;;;;;;;;;;;;;;;;5090873;28;19919;-64
2024/01/01 05:17:21;;;;;;;;;;;;;;;;;;5088778;28;19959;-64
2024/01/01 05:19:50;;;;;;;;;;;;;;;;;;5088826;28;20394;-63
2024/01/01 05:22:16;;;;;;;;;;;;;;;;;;5087427;28;20335;-64
2024/01/01 05:24:41;;;;;;;;;;;;;;;;;;5084761;28;20011;-63
2024/01/01 05:27:08;;;;;;;;;;;;;;;;;;5091214;28;19916;-64
2024/01/01 05:29:34;;;;;;;;;;;;;;;;;;5085363;28;19916;-63
2024/01/01 05:32:00;;;;;;;;;;;;;;;;;;5094089;28;20387;-64
2024/01/01 05:34:27;;;;;;;;;;;;;;;;;;5094387;28;19951;-64
2024/01/01 05:36:53;;;;;;;;;;;;;;;;;;5091773;28;19962;-64
2024/01/01 05:39:19;;;;;;;;;;;;;;;;;;5093658;28;19969;-63
2024/01/01 05:41:45;;;;;;;;;;;;;;;;;;5095206;28;20360;-63
2024/01/01 05:44:11;;;;;;;;;;;;;;;;;;5094841;28;19999;-64
2024/01/01 05:46:37;;;;;;;;;;;;;;;;;;5094172;28;19916;-63
2024/01/01 05:49:03;;;;;;;;;;;;;;;;;;5093196;28;19965;-64
2024/01/01 05:51:28;;;;;;;;;;;;;;;;;;5087737;28;19962;-63
2024/01/01 05:53:57;;;;;;;;;;;;;;;;;;5089906;28;20026;-64
2024/01/01 05:56:23;;;;;;;;;;;;;;;;;;5089090;28;19923;-63
2024/01/01 05:58:49;;;;;;;;;;;;;;;;;;5093944;28;20413;-64
2024/01/01 06:01:15;;;;;;;;;;;;;;;;;;5093311;28;19955;-64
2024/01/01 06:03:41;;;;;;;;;;;;;;;;;;5082602;28;20020;-64
2024/01/01 06:06:08;;;;;;;;;;;;;;;;;;5091195;28;19916;-64
2024/01/01 06:08:34;;;;;;;;;;;;;;;;;;5092417;28;19968;-64
2024/01/01 06:11:00;;;;;;;;;;;;;;;;;;5082121;28;20383;-64
2024/01/01 06:13:25;;;;;;;;;;;;;;;;;;5094853;28;19953;-63
2024/01/01 06:15:52;;;;;;;;;;;;;;;;;;5093698;28;20304;-63
2024/01/01 06:18:19;;;;;;;;;;;;;;;;;;5094875;28;20421;-64
2024/01/01 06:20:45;;;;;;;;;;;;;;;;;;5093039;28;19911;-64
2024/01/01 06:23:11;;;;;;;;;;;;;;;;;;5087501;28;19916;-63
2024/01/01 06:25:37;;;;;;;;;;;;;;;;;;5093342;28;19922;-63
2024/01/01 06:28:03;;;;;;;;;;;;;;;;;;5093899;28;19919;-63
2024/01/01 06:30:30;;;;;;;;;;;;;;;;;;5080199;28;19959;-63
2024/01/01 06:32:56;;;;;;;;;;;;;;;;;;5093529;28;19959;-63
2024/01/01 06:35:22;;;;;;;;;;;;;;;;;;5085520;28;19965;-64
2024/01/01 06:37:48;;;;;;;;;;;;;;;;;;5091569;28;19935;-63
2024/01/01 06:40:14;;;;;;;;;;;;;;;;;;5088160;28;19956;-63
2024/01/01 06:42:40;;;;;;;;;;;;;;;;;;5093757;28;20485;-63
2024/01/01 06:45:07;;;;;;;;;;;;;;;;;;5092613;28;19978;-63
2024/01/01 06:47:32;;;;;;;;;;;;;;;;;;5093291;28;19954;-64
2024/01/01 06:49:58;;;;;;;;;;;;;;;;;;5086891;28;19960;-63
2024/01/01 06:52:24;;;;;;;;;;;;;;;;;;5092008;28;19957;-63
2024/01/01 06:54:50;;;;;;;;;;;;;;;;;;5091380;28;19991;-63
2024/01/01 06:57:16;;;;;;;;;;;;;;;;;;5093943;28;19922;-64
2024/01/01 06:59:42;;;;;;;;;;;;;;;;;;5092105;28;19916;-63
2024/01/01 07:02:08;;;;;;;;;;;;;;;;;;5093408;28;20479;-64
2024/01/01 07:04:34;;;;;;;;;;;;;;;;;;5092574;28;19919;-63
2024/01/01 07:07:00;;;;;;;;;;;;;;;;;;5089545;28;19951;-63
2024/01/01 07:09:26;;;;;;;;;;;;;;;;;;5089103;28;20368;-63
2024/01/01 07:11:52;;;;;;;;;;;;;;;;;;5092445;28;19912;-60
2024/01/01 07:14:18;;;;;;;;;;;;;;;;;;5091935;28;20014;-60
2024/01/01 07:16:44;;;;;;;;;;;;;;;;;;5084235;28;19920;-60
2024/01/01 07:19:10;;;;;;;;;;;;;;;;;;5093058;28;19966;-59
2024/01/01 07:21:36;;;;;;;;;;;;;;;;;;5090960;28;19951;-60
2024/01/01 07:24:02;;;;;;;;;;;;;;;;;;5091530;28;20003;-60
2024/01/01 07:26:28;;;;;;;;;;;;;;;;;;5087551;28;20003;-60
2024/01/01 07:28:53;;;;;;;;;;;;;;;;;;5077646;28;20011;-60
2024/01/01 07:31:20;;;;;;;;;;;;;;;;;;5087347;28;19912;-59
2024/01/01 07:33:46;;;;;;;;;;;;;;;;;;5081947;28;20053;-60
2024/01/01 07:36:11;;;;;;;;;;;;;;;;;;5092474;28;19967;-59
2024/01/01 07:38:37;;;;;;;;;;;;;;;;;;5091545;28;20386;-60
2024/01/01 07:41:03;;;;;;;;;;;;;;;;;;5088350;28;19920;-59
2024/01/01 07:43:29;;;;;;;;;;;;;;;;;;5091692;28;20292;-59
2024/01/01 07:45:55;;;;;;;;;;;;;;;;;;5089451;28;20346;-59
2024/01/01 07:48:21;;;;;;;;;;;;;;;;;;5090448;28;19912;-62
2024/01/01 07:50:47;;;;;;;;;;;;;;;;;;5083689;28;20105;-60
2024/01/01 07:53:13;;;;;;;;;;;;;;;;;;5091949;28;20367;-60
2024/01/01 07:55:39;;;;;;;;;;;;;;;;;;5087508;28;20345;-60
2024/01/01 07:58:05;;;;;;;;;;;;;;;;;;5091695;28;19918;-59
2024/01/01 08:00:31;;;;;;;;;;;;;;;;;;5085765;28;19925;-59
2024/01/01 08:02:57;;;;;;;;;;;;;;;;;;5091597;28;19912;-60
2024/01/01 08:05:23;;;;;;;;;;;;;;;;;;5079420;28;19924;-60
2024/01/01 08:07:49;;;;;;;;;;;;;;;;;;5090754;28;19916;-60
2024/01/01 08:10:15;;;;;;;;;;;;;;;;;;5090628;28;19916;-59
2024/01/01 08:12:41;;;;;;;;;;;;;;;;;;5088044;28;19947;-60
2024/01/01 08:15:07;;;;;;;;;;;;;;;;;;5091462;28;19974;-60
2024/01/01 08:17:33;;;;;;;;;;;;;;;;;;5087343;28;20295;-60
2024/01/01 08:19:59;;;;;;;;;;;;;;;;;;5082108;28;19981;-58
2024/01/01 08:22:25;;;;;;;;;;;;;;;;;;5087385;28;19950;-58
2024/01/01 08:24:50;;;;;;;;;;;;;;;;;;5087498;28;19952;-60
2024/01/01 08:27:16;;;;;;;;;;;;;;;;;;5079225;28;20363;-58
2024/01/01 08:29:42;;;;;;;;;;;;;;;;;;5088291;28;19962;-58
2024/01/01 08:32:08;;;;;;;;;;;;;;;;;;5085318;28;19948;-60
2024/01/01 08:34:34;;;;;;;;;;;;;;;;;;5087426;28;19954;-58
2024/01/01 08:37:01;;;;;;;;;;;;;;;;;;5080744;28;20262;-59
2024/01/01 08:39:27;;;;;;;;;;;;;;;;;;5090718;28;19919;-58
2024/01/01 08:41:53;;;;;;;;;;;;;;;;;;5090754;28;19937;-60
2024/01/01 08:44:19;;;;;;;;;;;;;;;;;;5089727;28;20283;-58
2024/01/01 08:46:45;;;;;;;;;;;;;;;;;;5089836;28;20006;-58
2024/01/01 08:49:11;;;;;;;;;;;;;;;;;;5088485;28;19918;-60
2024/01/01 08:51:37;;;;;;;;;;;;;;;;;;5079379;28;20334;-60
2024/01/01 08:54:05;;;;;;;;;;;;;;;;;;5085702;28;20394;-59
2024/01/01 08:56:32;;;;;;;;;;;;;;;;;;5090732;28;19916;-59
2024/01/01 08:58:57;;;;;;;;;;;;;;;;;;5091429;28;19912;-60
2024/01/01 09:01:23;;;;;;;;;;;;;;;;;;5078407;28;19923;-59
2024/01/01 09:03:49;;;;;;;;;;;;;;;;;;5088110;28;19939;-60
2024/01/01 09:06:15;;;;;;;;;;;;;;;;;;5095134;28;20011;-59
2024/01/01 09:08:43;;;;;;;;;;;;;;;;;;5087149;28;19959;-61
2024/01/01 09:11:09;;;;;;;;;;;;;;;;;;5091983;28;19912;-60
2024/01/01 09:13:34;;;;;;;;;;;;;;;;;;5093511;28;20006;-60
2024/01/01 09:16:01;;;;;;;;;;;;;;;;;;5094487;28;20674;-59
2024/01/01 09:18:27;;;;;;;;;;;;;;;;;;5094603;28;20322;-60
2024/01/01 09:20:53;;;;;;;;;;;;;;;;;;5094397;28;19919;-60
2024/01/01 09:23:19;;;;;;;;;;;;;;;;;;5093983;28;19951;-61
2024/01/01 09:25:44;;;;;;;;;;;;;;;;;;5088549;28;19916;-60
2024/01/01 09:28:10;;;;;;;;;;;;;;;;;;5093070;28;19977;-62
2024/01/01 09:30:37;;;;;;;;;;;;;;;;;;5093620;28;19981;-61
2024/01/01 09:33:02;;;;;;;;;;;;;;;;;;5088469;28;20056;-60
2024/01/01 09:35:28;;;;;;;;;;;;;;;;;;5092251;28;20365;-59
2024/01/01 09:37:55;;;;;;;;;;;;;;;;;;5090222;28;20410;-60
2024/01/01 09:40:21;;;;;;;;;;;;;;;;;;5094702;28;19916;-60
2024/01/01 09:42:47;;;;;;;;;;;;;;;;;;5082139;28;19955;-60
2024/01/01 09:45:13;;;;;;;;;;;;;;;;;;5079599;28;19953;-60
2024/01/01 09:47:39;;;;;;;;;;;;;;;;;;5082140;28;20007;-59
2024/01/01 09:50:05;;;;;;;;;;;;;;;;;;5086185;28;19961;-60
2024/01/01 09:52:30;;;;;;;;;;;;;;;;;;5091063;28;20605;-59
2024/01/01 09:54:56;;;;;;;;;;;;;;;;;;5085708;28;19913;-60
2024/01/01 09:57:22;;;;;;;;;;;;;;;;;;5090736;28;20355;-60
2024/01/01 09:59:48;;;;;;;;;;;;;;;;;;5086506;28;20011;-60
2024/01/01 10:02:14;;;;;;;;;;;;;;;;;;5093848;28;20027;-60
2024/01/01 10:04:40;;;;;;;;;;;;;;;;;;5088601;28;20485;-62
2024/01/01 10:07:06;;;;;;;;;;;;;;;;;;5085985;28;19958;-60
2024/01/01 10:09:32;;;;;;;;;;;;;;;;;;5094057;28;19943;-60
2024/01/01 10:11:58;;;;;;;;;;;;;;;;;;5083326;28;19912;-60
2024/01/01 10:14:24;;;;;;;;;;;;;;;;;;5078939;28;19983;-59
2024/01/01 10:16:50;;;;;;;;;;;;;;;;;;5079213;28;19916;-62
2024/01/01 10:19:16;;;;;;;;;;;;;;;;;;5085870;28;19912;-60
2024/01/01 10:21:42;;;;;;;;;;;;;;;;;;5081770;28;19916;-62
2024/01/01 10:24:08;;;;;;;;;;;;;;;;;;5084447;28;19940;-60
2024/01/01 10:26:39;;;;;;;;;;;;;;;;;;5087532;28;19951;-60
2024/01/01 10:29:05;;;;;;;;;;;;;;;;;;5080191;28;19932;-59
2024/01/01 10:31:31;;;;;;;;;;;;;;;;;;5083600;28;20349;-61
2024/01/01 10:33:59;;;;;;;;;;;;;;;;;;5089171;28;19959;-60
2024/01/01 10:36:25;;;;;;;;;;;;;;;;;;5089449;28;19969;-60
2024/01/01 10:38:51;;;;;;;;;;;;;;;;;;5084899;28;19962;-60
2024/01/01 10:41:17;;;;;;;;;;;;;;;;;;5088649;28;19955;-62
2024/01/01 10:43:43;;;;;;;;;;;;;;;;;;5085443;28;19920;-63
2024/01/01 10:46:09;;;;;;;;;;;;;;;;;;5090350;28;19916;-62
2024/01/01 10:48:35;;;;;;;;;;;;;;;;;;5091089;28;20776;-61
2024/01/01 10:51:01;;;;;;;;;;;;;;;;;;5085140;28;19912;-62
2024/01/01 10:53:27;;;;;;;;;;;;;;;;;;5083904;28;19965;-62
2024/01/01 10:55:53;;;;;;;;;;;;;;;;;;5086456;28;19916;-62
2024/01/01 10:58:19;;;;;;;;;;;;;;;;;;5093436;28;19920;-62
2024/01/01 11:00:45;;;;;;;;;;;;;;;;;;5091628;28;20391;-62
2024/01/01 11:03:10;;;;;;;;;;;;;;;;;;5092568;28;19912;-62
2024/01/01 11:05:36;;;;;;;;;;;;;;;;;;5087937;28;21210;-63
2024/01/01 11:08:02;;;;;;;;;;;;;;;;;;5085486;28;19920;-63
2024/01/01 11:10:28;;;;;;;;;;;;;;;;;;5085450;28;20011;-64
2024/01/01 11:12:54;;;;;;;;;;;;;;;;;;5089582;28;20423;-64
2024/01/01 11:15:20;;;;;;;;;;;;;;;;;;5089393;28;20048;-62
2024/01/01 11:17:46;;;;;;;;;;;;;;;;;;5091220;28;19963;-62
2024/01/01 11:20:12;;;;;;;;;;;;;;;;;;5087931;28;19943;-62
2024/01/01 11:22:39;;;;;;;;;;;;;;;;;;5083602;28;19913;-62
2024/01/01 11:25:05;;;;;;;;;;;;;;;;;;5087982;28;20015;-61
2024/01/01 11:27:31;;;;;;;;;;;;;;;;;;5087646;28;20066;-62
2024/01/01 11:29:57;;;;;;;;;;;;;;;;;;5092022;28;19924;-61
2024/01/01 11:32:24;;;;;;;;;;;;;;;;;;5091116;28;19920;-63
2024/01/01 11:34:50;;;;;;;;;;;;;;;;;;5088680;28;20099;-62
2024/01/01 11:37:16;;;;;;;;;;;;;;;;;;5080018;28;20015;-61
2024/01/01 11:39:42;;;;;;;;;;;;;;;;;;5088821;28;20498;-61
2024/01/01 11:42:09;;;;;;;;;;;;;;;;;;5088892;28;19920;-61
2024/01/01 11:44:35;;;;;;;;;;;;;;;;;;5089034;28;19920;-64
2024/01/01 11:47:00;;;;;;;;;;;;;;;;;;5086361;28;19963;-61
2024/01/01 11:49:26;;;;;;;;;;;;;;;;;;5090690;28;19912;-64
2024/01/01 11:51:52;;;;;;;;;;;;;;;;;;5083162;28;20379;-62
2024/01/01 11:54:18;;;;;;;;;;;;;;;;;;5085046;28;19999;-62
2024/01/01 11:56:51;;;;;;;;;;;;;;;;;;5087636;28;20018;-62
2024/01/01 11:59:17;;;;;;;;;;;;;;;;;;5081688;28;19927;-60
2024/01/01 12:01:42;;;;;;;;;;;;;;;;;;5083853;28;19951;-60
2024/01/01 12:04:08;;;;;;;;;;;;;;;;;;5091738;28;19918;-59
2024/01/01 12:06:34;;;;;;;;;;;;;;;;;;5090501;28;19950;-60
2024/01/01 12:09:00;;;;;;;;;;;;;;;;;;5086397;28;19920;-60
2024/01/01 12:11:26;;;;;;;;;;;;;;;;;;5087070;28;20402;-59
2024/01/01 12:13:52;;;;;;;;;;;;;;;;;;5091319;28;19954;-60
2024/01/01 12:16:18;;;;;;;;;;;;;;;;;;5089220;28;20314;-60
2024/01/01 12:18:44;;;;;;;;;;;;;;;;;;5089056;28;19915;-60
2024/01/01 12:21:10;;;;;;;;;;;;;;;;;;5090267;28;20268;-60
2024/01/01 12:23:36;;;;;;;;;;;;;;;;;;5087309;28;20012;-61
2024/01/01 12:26:03;;;;;;;;;;;;;;;;;;5078111;28;19927;-60
2024/01/01 12:28:28;;;;;;;;;;;;;;;;;;5083644;28;19916;-62
2024/01/01 12:30:54;;;;;;;;;;;;;;;;;;5082655;28;19959;-62
2024/01/01 12:33:20;;;;;;;;;;;;;;;;;;5084448;28;19959;-61
2024/01/01 12:35:46;;;;;;;;;;;;;;;;;;5080515;28;20387;-61
2024/01/01 12:38:12;;;;;;;;;;;;;;;;;;5084226;28;19969;-62
2024/01/01 12:40:39;;;;;;;;;;;;;;;;;;5079558;28;20011;-62
2024/01/01 12:43:05;;;;;;;;;;;;;;;;;;5080876;28;19913;-62
2024/01/01 12:45:31;;;;;;;;;;;;;;;;;;5079196;28;19939;-62
2024/01/01 12:47:57;;;;;;;;;;;;;;;;;;5080720;28;19939;-61
2024/01/01 12:50:23;;;;;;;;;;;;;;;;;;5084862;28;19912;-62
2024/01/01 12:52:49;;;;;;;;;;;;;;;;;;5078387;28;19963;-60
2024/01/01 12:55:15;;;;;;;;;;;;;;;;;;5082269;28;21048;-62
2024/01/01 12:57:41;;;;;;;;;;;;;;;;;;5083476;28;19924;-62
2024/01/01 13:00:09;;;;;;;;;;;;;;;;;;5078191;28;19919;-62
2024/01/01 13:02:35;;;;;;;;;;;;;;;;;;5084652;28;20403;-62
2024/01/01 13:05:02;;;;;;;;;;;;;;;;;;5077422;28;19959;-63
2024/01/01 13:07:28;;;;;;;;;;;;;;;;;;5083737;28;19916;-63
2024/01/01 13:09:54;;;;;;;;;;;;;;;;;;5080209;28;19967;-65
2024/01/01 13:12:20;;;;;;;;;;;;;;;;;;5083437;28;20339;-63
2024/01/01 13:14:46;;;;;;;;;;;;;;;;;;5077854;28;20039;-62
2024/01/01 13:17:12;;;;;;;;;;;;;;;;;;5085806;28;19967;-63
2024/01/01 13:19:38;;;;;;;;;;;;;;;;;;5085194;28;19968;-62
2024/01/01 13:22:04;;;;;;;;;;;;;;;;;;5079891;28;20062;-63
2024/01/01 13:24:30;;;;;;;;;;;;;;;;;;5080149;28;19991;-63
2024/01/01 13:26:58;;;;;;;;;;;;;;;;;;5085865;28;19940;-63
2024/01/01 13:29:24;;;;;;;;;;;;;;;;;;5080018;28;19924;-63
2024/01/01 13:31:50;;;;;;;;;;;;;;;;;;5081796;28;19959;-63
2024/01/01 13:34:16;;;;;;;;;;;;;;;;;;5079119;28;19991;-63
2024/01/01 13:36:42;;;;;;;;;;;;;;;;;;5080044;28;20504;-63
2024/01/01 13:39:08;;;;;;;;;;;;;;;;;;5080741;28;19912;-63
2024/01/01 13:41:34;;;;;;;;;;;;;;;;;;5083995;28;19919;-63
2024/01/01 13:44:00;;;;;;;;;;;;;;;;;;5083067;28;20391;-64
2024/01/01 13:46:26;;;;;;;;;;;;;;;;;;5083674;28;19964;-63
2024/01/01 13:48:52;;;;;;;;;;;;;;;;;;5084595;28;20349;-63
2024/01/01 13:51:18;;;;;;;;;;;;;;;;;;5085782;28;19923;-63
2024/01/01 13:53:44;;;;;;;;;;;;;;;;;;5084652;28;19919;-63
2024/01/01 13:56:10;;;;;;;;;;;;;;;;;;5084568;28;19955;-63
2024/01/01 13:58:36;;;;;;;;;;;;;;;;;;5081095;28;19953;-63
2024/01/01 14:01:03;;;;;;;;;;;;;;;;;;5082858;28;20380;-63
2024/01/01 14:03:29;;;;;;;;;;;;;;;;;;5082713;28;19957;-63
2024/01/01 14:05:55;;;;;;;;;;;;;;;;;;5084529;28;19928;-63
2024/01/01 14:08:21;;;;;;;;;;;;;;;;;;5084343;28;19943;-63
2024/01/01 14:10:47;;;;;;;;;;;;;;;;;;5085902;28;19919;-63
2024/01/01 14:13:13;;;;;;;;;;;;;;;;;;5084773;28;19913;-60
2024/01/01 14:15:39;;;;;;;;;;;;;;;;;;5083665;28;20056;-59
2024/01/01 14:18:05;;;;;;;;;;;;;;;;;;5088165;28;19937;-63
2024/01/01 14:20:31;;;;;;;;;;;;;;;;;;5084959;28;20008;-59
2024/01/01 14:22:57;;;;;;;;;;;;;;;;;;5083360;28;19912;-61
2024/01/01 14:25:23;;;;;;;;;;;;;;;;;;5082079;28;19916;-61
2024/01/01 14:27:49;;;;;;;;;;;;;;;;;;5084172;28;19935;-60
2024/01/01 14:30:15;;;;;;;;;;;;;;;;;;5084532;28;19923;-60
2024/01/01 14:32:41;;;;;;;;;;;;;;;;;;5080266;28;19951;-61
2024/01/01 14:35:07;;;;;;;;;;;;;;;;;;5077720;28;20070;-60
2024/01/01 14:37:33;;;;;;;;;;;;;;;;;;5086059;28;19974;-62
2024/01/01 14:39:59;;;;;;;;;;;;;;;;;;5081828;28;20387;-61
2024/01/01 14:42:25;;;;;;;;;;;;;;;;;;5088923;28;19949;-60
2024/01/01 14:44:51;;;;;;;;;;;;;;;;;;5079730;28;19919;-60
2024/01/01 14:47:17;;;;;;;;;;;;;;;;;;5082702;28;19948;-60
2024/01/01 14:49:43;;;;;;;;;;;;;;;;;;5086675;28;20403;-59
2024/01/01 14:52:09;;;;;;;;;;;;;;;;;;5092701;28;19970;-60
2024/01/01 14:54:35;;;;;;;;;;;;;;;;;;5090724;28;19951;-62
2024/01/01 14:57:01;;;;;;;;;;;;;;;;;;5093611;28;19943;-59
2024/01/01 14:59:27;;;;;;;;;;;;;;;;;;5088666;28;19967;-61
2024/01/01 15:01:53;;;;;;;;;;;;;;;;;;5090007;28;20385;-60
2024/01/01 15:04:19;;;;;;;;;;;;;;;;;;5090237;28;20014;-60
2024/01/01 15:06:44;;;;;;;;;;;;;;;;;;5090096;28;19935;-59
2024/01/01 15:09:11;;;;;;;;;;;;;;;;;;5093892;28;19953;-62
2024/01/01 15:11:37;;;;;;;;;;;;;;;;;;5088388;28;19971;-60
2024/01/01 15:14:03;;;;;;;;;;;;;;;;;;5088794;28;19951;-60
2024/01/01 15:16:29;;;;;;;;;;;;;;;;;;5084651;28;19993;-60
2024/01/01 15:18:55;;;;;;;;;;;;;;;;;;5087837;28;19959;-59
2024/01/01 15:21:22;;;;;;;;;;;;;;;;;;5087560;28;20006;-60
2024/01/01 15:23:48;;;;;;;;;;;;;;;;;;5091048;28;20002;-62
2024/01/01 15:26:14;;;;;;;;;;;;;;;;;;5093907;28;20359;-62
2024/01/01 15:28:40;;;;;;;;;;;;;;;;;;5088396;28;19923;-62
2024/01/01 15:31:06;;;;;;;;;;;;;;;;;;5093635;28;19919;-62
2024/01/01 15:33:32;;;;;;;;;;;;;;;;;;5088266;28;19916;-61
2024/01/01 15:35:58;;;;;;;;;;;;;;;;;;5089617;28;19959;-62
2024/01/01 15:38:23;;;;;;;;;;;;;;;;;;5089365;28;19915;-62
2024/01/01 15:40:49;;;;;;;;;;;;;;;;;;5084867;28;20438;-60
2024/01/01 15:43:15;;;;;;;;;;;;;;;;;;5092312;28;19912;-62
2024/01/01 15:45:41;;;;;;;;;;;;;;;;;;5081372;28;19971;-62
2024/01/01 15:48:07;;;;;;;;;;;;;;;;;;5090404;28;19979;-62
2024/01/01 15:50:33;;;;;;;;;;;;;;;;;;5080814;28;19912;-62
2024/01/01 15:52:59;;;;;;;;;;;;;;;;;;5090151;28;19912;-62
2024/01/01 15:55:25;;;;;;;;;;;;;;;;;;5090616;28;19959;-62
2024/01/01 15:57:51;;;;;;;;;;;;;;;;;;5092443;28;19947;-62
2024/01/01 16:00:17;;;;;;;;;;;;;;;;;;5090899;28;20619;-62
2024/01/01 16:02:43;;;;;;;;;;;;;;;;;;5080686;28;19999;-62
2024/01/01 16:05:09;;;;;;;;;;;;;;;;;;5093089;28;19912;-62
2024/01/01 16:07:35;;;;;;;;;;;;;;;;;;5083631;28;19920;-62
2024/01/01 16:10:02;;;;;;;;;;;;;;;;;;5089809;28;19952;-62
2024/01/01 16:12:28;;;;;;;;;;;;;;;;;;5091208;28;20423;-62
2024/01/01 16:14:54;;;;;;;;;;;;;;;;;;5089237;28;19918;-62
2024/01/01 16:17:20;;;;;;;;;;;;;;;;;;5087864;28;20279;-62
2024/01/01 16:19:46;;;;;;;;;;;;;;;;;;5089914;28;19913;-62
2024/01/01 16:22:13;;;;;;;;;;;;;;;;;;5086199;28;20370;-62
2024/01/01 16:24:39;;;;;;;;;;;;;;;;;;5084370;28;19917;-62
2024/01/01 16:27:05;;;;;;;;;;;;;;;;;;5080676;28;20440;-62
2024/01/01 16:29:31;;;;;;;;;;;;;;;;;;5086472;28;19951;-62
2024/01/01 16:31:58;;;;;;;;;;;;;;;;;;5083949;28;20009;-63
2024/01/01 16:34:24;;;;;;;;;;;;;;;;;;5088337;28;20370;-63
2024/01/01 16:36:50;;;;;;;;;;;;;;;;;;5081160;28;20009;-63